sensor_id;sensor_type;location;lat;lon;timestamp;pressure;altitude;pressure_sealevel;temperature;humidity
68320;BME280;55168;51.120;17.024;2023-05-29T00:00:00;100360;;;12.7;100.0
68320;BME280;55168;51.120;17.024;2023-05-29T00:01:00;100360;;;12.7;100.0
68320;BME280;55168;51.120;17.024;2023-05-29T00:02:00;100360;;;12.7;100.0
68320;BME280;55168;51.120;17.024;2023-05-29T00:03:00;100360;;;12.7;100.0
68320;BME280;55168;51.120;17.024;2023-05-29T00:04:00;100360;;;12.7;100.0
68320;BME280;55168;51.120;17.024;2023-05-29T00:05:00;100350;;;12.8;100.0
68320;BME280;55168;51.120;17.024;2023-05-29T00:06:02;100360;;;12.8;100.0
68320;BME280;55168;51.120;17.024;2023-05-29T00:07:00;100360;;;12.7;100.0
68320;BME280;55168;51.120;17.024;2023-05-29T00:08:00;100360;;;12.7;100.0
68320;BME280;55168;51.120;17.024;2023-05-29T00:09:00;100360;;;12.7;100.0
68320;BME280;55168;51.120;17.024;2023-05-29T00:10:00;100360;;;12.6;100.0
68320;BME280;55168;51.120;17.024;2023-05-29T00:11:00;100350;;;12.6;100.0
68320;BME280;55168;51.120;17.024;2023-05-29T00:12:00;100350;;;12.6;100.0
68320;BME280;55168;51.120;17.024;2023-05-29T00:13:00;100350;;;12.6;100.0
68320;BME280;55168;51.120;17.024;2023-05-29T00:14:00;100350;;;12.6;100.0
68320;BME280;55168;51.120;17.024;2023-05-29T00:15:00;100360;;;12.6;100.0
68320;BME280;55168;51.120;17.024;2023-05-29T00:16:00;100350;;;12.6;100.0
68320;BME280;55168;51.120;17.024;2023-05-29T00:17:00;100350;;;12.6;100.0
68320;BME280;55168;51.120;17.024;2023-05-29T00:18:00;100360;;;12.6;100.0
68320;BME280;55168;51.120;17.024;2023-05-29T00:19:00;100350;;;12.5;100.0
68320;BME280;55168;51.120;17.024;2023-05-29T00:20:00;100350;;;12.5;100.0
68320;BME280;55168;51.120;17.024;2023-05-29T00:21:00;100360;;;12.5;100.0
68320;BME280;55168;51.120;17.024;2023-05-29T00:22:00;100360;;;12.5;100.0
68320;BME280;55168;51.120;17.024;2023-05-29T00:23:00;100360;;;12.5;100.0
68320;BME280;55168;51.120;17.024;2023-05-29T00:24:00;100350;;;12.5;100.0
68320;BME280;55168;51.120;17.024;2023-05-29T00:25:00;100350;;;12.4;100.0
68320;BME280;55168;51.120;17.024;2023-05-29T00:26:00;100360;;;12.4;100.0
68320;BME280;55168;51.120;17.024;2023-05-29T00:27:00;100350;;;12.4;100.0
68320;BME280;55168;51.120;17.024;2023-05-29T00:28:00;100350;;;12.4;100.0
68320;BME280;55168;51.120;17.024;2023-05-29T00:29:00;100350;;;12.4;100.0
68320;BME280;55168;51.120;17.024;2023-05-29T00:30:00;100350;;;12.4;100.0
68320;BME280;55168;51.120;17.024;2023-05-29T00:31:00;100350;;;12.4;100.0
68320;BME280;55168;51.120;17.024;2023-05-29T00:32:00;100350;;;12.4;100.0
68320;BME280;55168;51.120;17.024;2023-05-29T00:33:00;100350;;;12.4;100.0
68320;BME280;55168;51.120;17.024;2023-05-29T00:34:00;100350;;;12.4;100.0
68320;BME280;55168;51.120;17.024;2023-05-29T00:35:00;100350;;;12.4;100.0
68320;BME280;55168;51.120;17.024;2023-05-29T00:36:00;100350;;;12.4;100.0
68320;BME280;55168;51.120;17.024;2023-05-29T00:37:00;100350;;;12.4;100.0
68320;BME280;55168;51.120;17.024;2023-05-29T00:38:00;100350;;;12.4;100.0
68320;BME280;55168;51.120;17.024;2023-05-29T00:39:00;100350;;;12.4;100.0
68320;BME280;55168;51.120;17.024;2023-05-29T00:40:00;100350;;;12.3;100.0
68320;BME280;55168;51.120;17.024;2023-05-29T00:41:00;100350;;;12.3;100.0
68320;BME280;55168;51.120;17.024;2023-05-29T00:42:00;100350;;;12.3;100.0
68320;BME280;55168;51.120;17.024;2023-05-29T00:43:00;100350;;;12.3;100.0
68320;BME280;55168;51.120;17.024;2023-05-29T00:44:00;100350;;;12.2;100.0
68320;BME280;55168;51.120;17.024;2023-05-29T00:45:00;100350;;;12.2;100.0
68320;BME280;55168;51.120;17.024;2023-05-29T00:46:00;100350;;;12.2;100.0
68320;BME280;55168;51.120;17.024;2023-05-29T00:47:00;100350;;;12.1;100.0
68320;BME280;55168;51.120;17.024;2023-05-29T00:48:00;100350;;;12.1;100.0
68320;BME280;55168;51.120;17.024;2023-05-29T00:49:00;100350;;;12.1;100.0
68320;BME280;55168;51.120;17.024;2023-05-29T00:50:00;100350;;;12.0;100.0
68320;BME280;55168;51.120;17.024;2023-05-29T00:51:00;100350;;;12.0;100.0
68320;BME280;55168;51.120;17.024;2023-05-29T00:52:00;100350;;;12.0;100.0
68320;BME280;55168;51.120;17.024;2023-05-29T00:53:00;100350;;;12.0;100.0
68320;BME280;55168;51.120;17.024;2023-05-29T00:54:00;100350;;;12.0;100.0
68320;BME280;55168;51.120;17.024;2023-05-29T00:55:00;100350;;;11.9;100.0
68320;BME280;55168;51.120;17.024;2023-05-29T00:56:00;100350;;;11.9;100.0
68320;BME280;55168;51.120;17.024;2023-05-29T00:57:00;100340;;;11.9;100.0
68320;BME280;55168;51.120;17.024;2023-05-29T00:58:00;100340;;;11.9;100.0
68320;BME280;55168;51.120;17.024;2023-05-29T00:59:00;100350;;;11.9;100.0
68320;BME280;55168;51.120;17.024;2023-05-29T01:00:01;100350;;;11.9;100.0
68320;BME280;55168;51.120;17.024;2023-05-29T01:01:00;100350;;;11.8;100.0
68320;BME280;55168;51.120;17.024;2023-05-29T01:02:00;100350;;;11.8;100.0
68320;BME280;55168;51.120;17.024;2023-05-29T01:03:00;100350;;;11.7;100.0
68320;BME280;55168;51.120;17.024;2023-05-29T01:04:00;100340;;;11.7;100.0
68320;BME280;55168;51.120;17.024;2023-05-29T01:05:00;100340;;;11.6;100.0
68320;BME280;55168;51.120;17.024;2023-05-29T01:06:00;100340;;;11.6;100.0
68320;BME280;55168;51.120;17.024;2023-05-29T01:07:00;100340;;;11.6;100.0
68320;BME280;55168;51.120;17.024;2023-05-29T01:08:00;100340;;;11.6;100.0
68320;BME280;55168;51.120;17.024;2023-05-29T01:09:00;100340;;;11.6;100.0
68320;BME280;55168;51.120;17.024;2023-05-29T01:10:00;100340;;;11.5;100.0
68320;BME280;55168;51.120;17.024;2023-05-29T01:11:03;100340;;;11.5;100.0
68320;BME280;55168;51.120;17.024;2023-05-29T01:12:08;100340;;;11.4;100.0
68320;BME280;55168;51.120;17.024;2023-05-29T01:13:06;100350;;;11.4;100.0
68320;BME280;55168;51.120;17.024;2023-05-29T01:14:00;100340;;;11.4;100.0
68320;BME280;55168;51.120;17.024;2023-05-29T01:15:03;100340;;;11.4;100.0
68320;BME280;55168;51.120;17.024;2023-05-29T01:16:05;100350;;;11.4;100.0
68320;BME280;55168;51.120;17.024;2023-05-29T01:17:03;100350;;;11.3;100.0
68320;BME280;55168;51.120;17.024;2023-05-29T01:19:01;100350;;;11.2;100.0
68320;BME280;55168;51.120;17.024;2023-05-29T01:20:03;100350;;;11.2;100.0
68320;BME280;55168;51.120;17.024;2023-05-29T01:21:05;100360;;;11.2;100.0
68320;BME280;55168;51.120;17.024;2023-05-29T01:23:06;100350;;;11.2;100.0
68320;BME280;55168;51.120;17.024;2023-05-29T01:24:02;100350;;;11.1;100.0
68320;BME280;55168;51.120;17.024;2023-05-29T01:25:11;100350;;;11.1;100.0
68320;BME280;55168;51.120;17.024;2023-05-29T01:27:01;100350;;;11.0;100.0
68320;BME280;55168;51.120;17.024;2023-05-29T01:28:00;100350;;;11.0;100.0
68320;BME280;55168;51.120;17.024;2023-05-29T01:29:00;100350;;;11.0;100.0
68320;BME280;55168;51.120;17.024;2023-05-29T01:30:00;100340;;;10.9;100.0
68320;BME280;55168;51.120;17.024;2023-05-29T01:31:00;100350;;;10.9;100.0
68320;BME280;55168;51.120;17.024;2023-05-29T01:32:00;100350;;;10.9;100.0
68320;BME280;55168;51.120;17.024;2023-05-29T01:33:00;100340;;;10.9;100.0
68320;BME280;55168;51.120;17.024;2023-05-29T01:34:00;100340;;;10.9;100.0
68320;BME280;55168;51.120;17.024;2023-05-29T01:35:00;100340;;;10.9;100.0
68320;BME280;55168;51.120;17.024;2023-05-29T01:36:00;100340;;;10.8;100.0
68320;BME280;55168;51.120;17.024;2023-05-29T01:37:00;100340;;;10.8;100.0
68320;BME280;55168;51.120;17.024;2023-05-29T01:38:00;100340;;;10.9;100.0
68320;BME280;55168;51.120;17.024;2023-05-29T01:39:00;100340;;;10.8;100.0
68320;BME280;55168;51.120;17.024;2023-05-29T01:40:00;100340;;;10.8;100.0
68320;BME280;55168;51.120;17.024;2023-05-29T01:41:01;100350;;;10.8;100.0
68320;BME280;55168;51.120;17.024;2023-05-29T01:42:00;100350;;;10.7;100.0
68320;BME280;55168;51.120;17.024;2023-05-29T01:43:01;100350;;;10.7;100.0
68320;BME280;55168;51.120;17.024;2023-05-29T01:44:01;100350;;;10.7;100.0
68320;BME280;55168;51.120;17.024;2023-05-29T01:45:00;100340;;;10.7;100.0
68320;BME280;55168;51.120;17.024;2023-05-29T01:46:00;100350;;;10.7;100.0
68320;BME280;55168;51.120;17.024;2023-05-29T01:47:00;100340;;;10.7;100.0
68320;BME280;55168;51.120;17.024;2023-05-29T01:48:00;100350;;;10.8;100.0
68320;BME280;55168;51.120;17.024;2023-05-29T01:49:00;100350;;;10.8;100.0
68320;BME280;55168;51.120;17.024;2023-05-29T01:50:00;100350;;;10.8;100.0
68320;BME280;55168;51.120;17.024;2023-05-29T01:51:00;100340;;;10.7;100.0
68320;BME280;55168;51.120;17.024;2023-05-29T01:52:00;100340;;;10.8;100.0
68320;BME280;55168;51.120;17.024;2023-05-29T01:53:00;100340;;;10.8;100.0
68320;BME280;55168;51.120;17.024;2023-05-29T01:54:00;100340;;;10.7;100.0
68320;BME280;55168;51.120;17.024;2023-05-29T01:55:00;100340;;;10.7;100.0
68320;BME280;55168;51.120;17.024;2023-05-29T01:56:00;100340;;;10.7;100.0
68320;BME280;55168;51.120;17.024;2023-05-29T01:57:00;100340;;;10.7;100.0
68320;BME280;55168;51.120;17.024;2023-05-29T01:58:00;100340;;;10.6;100.0
68320;BME280;55168;51.120;17.024;2023-05-29T01:59:00;100340;;;10.6;100.0
68320;BME280;55168;51.120;17.024;2023-05-29T02:00:01;100340;;;10.5;100.0
68320;BME280;55168;51.120;17.024;2023-05-29T02:01:01;100330;;;10.5;100.0
68320;BME280;55168;51.120;17.024;2023-05-29T02:02:08;100330;;;10.4;100.0
68320;BME280;55168;51.120;17.024;2023-05-29T02:03:00;100340;;;10.4;100.0
68320;BME280;55168;51.120;17.024;2023-05-29T02:04:00;100340;;;10.4;100.0
68320;BME280;55168;51.120;17.024;2023-05-29T02:05:00;100340;;;10.4;100.0
68320;BME280;55168;51.120;17.024;2023-05-29T02:06:00;100330;;;10.3;100.0
68320;BME280;55168;51.120;17.024;2023-05-29T02:07:00;100340;;;10.3;100.0
68320;BME280;55168;51.120;17.024;2023-05-29T02:08:00;100340;;;10.2;100.0
68320;BME280;55168;51.120;17.024;2023-05-29T02:09:00;100340;;;10.2;100.0
68320;BME280;55168;51.120;17.024;2023-05-29T02:10:00;100340;;;10.2;100.0
68320;BME280;55168;51.120;17.024;2023-05-29T02:11:00;100340;;;10.2;100.0
68320;BME280;55168;51.120;17.024;2023-05-29T02:12:00;100340;;;10.2;100.0
68320;BME280;55168;51.120;17.024;2023-05-29T02:13:00;100340;;;10.3;100.0
68320;BME280;55168;51.120;17.024;2023-05-29T02:14:00;100340;;;10.3;100.0
68320;BME280;55168;51.120;17.024;2023-05-29T02:15:00;100340;;;10.2;100.0
68320;BME280;55168;51.120;17.024;2023-05-29T02:16:00;100340;;;10.2;100.0
68320;BME280;55168;51.120;17.024;2023-05-29T02:17:00;100340;;;10.2;100.0
68320;BME280;55168;51.120;17.024;2023-05-29T02:18:00;100340;;;10.2;100.0
68320;BME280;55168;51.120;17.024;2023-05-29T02:19:00;100340;;;10.1;100.0
68320;BME280;55168;51.120;17.024;2023-05-29T02:20:01;100340;;;10.1;100.0
68320;BME280;55168;51.120;17.024;2023-05-29T02:21:00;100340;;;10.2;100.0
68320;BME280;55168;51.120;17.024;2023-05-29T02:22:00;100350;;;10.2;100.0
68320;BME280;55168;51.120;17.024;2023-05-29T02:23:00;100340;;;10.2;100.0
68320;BME280;55168;51.120;17.024;2023-05-29T02:24:00;100350;;;10.2;100.0
68320;BME280;55168;51.120;17.024;2023-05-29T02:25:00;100340;;;10.2;100.0
68320;BME280;55168;51.120;17.024;2023-05-29T02:26:00;100340;;;10.2;100.0
68320;BME280;55168;51.120;17.024;2023-05-29T02:27:00;100350;;;10.2;100.0
68320;BME280;55168;51.120;17.024;2023-05-29T02:28:00;100340;;;10.2;100.0
68320;BME280;55168;51.120;17.024;2023-05-29T02:29:00;100340;;;10.2;100.0
68320;BME280;55168;51.120;17.024;2023-05-29T02:30:00;100340;;;10.1;100.0
68320;BME280;55168;51.120;17.024;2023-05-29T02:31:01;100340;;;10.1;100.0
68320;BME280;55168;51.120;17.024;2023-05-29T02:32:00;100340;;;10.1;100.0
68320;BME280;55168;51.120;17.024;2023-05-29T02:33:00;100340;;;10.1;100.0
68320;BME280;55168;51.120;17.024;2023-05-29T02:34:00;100340;;;10.1;100.0
68320;BME280;55168;51.120;17.024;2023-05-29T02:35:00;100340;;;10.1;100.0
68320;BME280;55168;51.120;17.024;2023-05-29T02:36:00;100340;;;10.1;100.0
68320;BME280;55168;51.120;17.024;2023-05-29T02:37:00;100340;;;10.0;100.0
68320;BME280;55168;51.120;17.024;2023-05-29T02:38:00;100340;;;10.0;100.0
68320;BME280;55168;51.120;17.024;2023-05-29T02:39:00;100340;;;10.0;100.0
68320;BME280;55168;51.120;17.024;2023-05-29T02:40:00;100330;;;10.0;100.0
68320;BME280;55168;51.120;17.024;2023-05-29T02:41:00;100340;;;9.9;100.0
68320;BME280;55168;51.120;17.024;2023-05-29T02:42:00;100330;;;9.9;100.0
68320;BME280;55168;51.120;17.024;2023-05-29T02:43:00;100340;;;9.9;100.0
68320;BME280;55168;51.120;17.024;2023-05-29T02:44:00;100340;;;9.9;100.0
68320;BME280;55168;51.120;17.024;2023-05-29T02:45:00;100330;;;9.9;100.0
68320;BME280;55168;51.120;17.024;2023-05-29T02:46:00;100340;;;9.9;100.0
68320;BME280;55168;51.120;17.024;2023-05-29T02:47:00;100340;;;9.8;100.0
68320;BME280;55168;51.120;17.024;2023-05-29T02:48:00;100340;;;9.8;100.0
68320;BME280;55168;51.120;17.024;2023-05-29T02:49:00;100340;;;9.8;100.0
68320;BME280;55168;51.120;17.024;2023-05-29T02:50:01;100340;;;9.7;100.0
68320;BME280;55168;51.120;17.024;2023-05-29T02:51:00;100340;;;9.7;100.0
68320;BME280;55168;51.120;17.024;2023-05-29T02:52:00;100340;;;9.7;100.0
68320;BME280;55168;51.120;17.024;2023-05-29T02:53:00;100340;;;9.7;100.0
68320;BME280;55168;51.120;17.024;2023-05-29T02:54:00;100340;;;9.7;100.0
68320;BME280;55168;51.120;17.024;2023-05-29T02:55:00;100340;;;9.8;100.0
68320;BME280;55168;51.120;17.024;2023-05-29T02:56:00;100350;;;9.8;100.0
68320;BME280;55168;51.120;17.024;2023-05-29T02:57:00;100340;;;9.8;100.0
68320;BME280;55168;51.120;17.024;2023-05-29T02:58:00;100340;;;9.9;100.0
68320;BME280;55168;51.120;17.024;2023-05-29T02:59:00;100340;;;9.9;100.0
68320;BME280;55168;51.120;17.024;2023-05-29T03:00:00;100340;;;10.0;100.0
68320;BME280;55168;51.120;17.024;2023-05-29T03:01:00;100340;;;10.0;100.0
68320;BME280;55168;51.120;17.024;2023-05-29T03:02:00;100340;;;10.0;100.0
68320;BME280;55168;51.120;17.024;2023-05-29T03:03:00;100340;;;10.1;100.0
68320;BME280;55168;51.120;17.024;2023-05-29T03:04:00;100330;;;10.1;100.0
68320;BME280;55168;51.120;17.024;2023-05-29T03:05:00;100340;;;10.1;100.0
68320;BME280;55168;51.120;17.024;2023-05-29T03:06:00;100340;;;10.1;100.0
68320;BME280;55168;51.120;17.024;2023-05-29T03:07:00;100340;;;10.1;100.0
68320;BME280;55168;51.120;17.024;2023-05-29T03:08:00;100340;;;10.1;100.0
68320;BME280;55168;51.120;17.024;2023-05-29T03:09:00;100340;;;10.1;100.0
68320;BME280;55168;51.120;17.024;2023-05-29T03:10:00;100340;;;10.1;100.0
68320;BME280;55168;51.120;17.024;2023-05-29T03:11:00;100340;;;10.1;100.0
68320;BME280;55168;51.120;17.024;2023-05-29T03:12:00;100350;;;10.2;100.0
68320;BME280;55168;51.120;17.024;2023-05-29T03:13:00;100350;;;10.2;100.0
68320;BME280;55168;51.120;17.024;2023-05-29T03:14:00;100350;;;10.2;100.0
68320;BME280;55168;51.120;17.024;2023-05-29T03:15:00;100360;;;10.3;100.0
68320;BME280;55168;51.120;17.024;2023-05-29T03:16:00;100360;;;10.3;100.0
68320;BME280;55168;51.120;17.024;2023-05-29T03:17:00;100360;;;10.3;100.0
68320;BME280;55168;51.120;17.024;2023-05-29T03:18:00;100360;;;10.3;100.0
68320;BME280;55168;51.120;17.024;2023-05-29T03:19:00;100360;;;10.2;100.0
68320;BME280;55168;51.120;17.024;2023-05-29T03:20:00;100360;;;10.2;100.0
68320;BME280;55168;51.120;17.024;2023-05-29T03:21:00;100360;;;10.2;100.0
68320;BME280;55168;51.120;17.024;2023-05-29T03:22:00;100360;;;10.2;100.0
68320;BME280;55168;51.120;17.024;2023-05-29T03:23:00;100360;;;10.2;100.0
68320;BME280;55168;51.120;17.024;2023-05-29T03:24:00;100360;;;10.2;100.0
68320;BME280;55168;51.120;17.024;2023-05-29T03:25:01;100360;;;10.2;100.0
68320;BME280;55168;51.120;17.024;2023-05-29T03:26:01;100360;;;10.1;100.0
68320;BME280;55168;51.120;17.024;2023-05-29T03:27:00;100370;;;10.1;100.0
68320;BME280;55168;51.120;17.024;2023-05-29T03:28:00;100370;;;10.1;100.0
68320;BME280;55168;51.120;17.024;2023-05-29T03:29:00;100370;;;10.1;100.0
68320;BME280;55168;51.120;17.024;2023-05-29T03:30:00;100370;;;10.1;100.0
68320;BME280;55168;51.120;17.024;2023-05-29T03:31:00;100370;;;10.2;100.0
68320;BME280;55168;51.120;17.024;2023-05-29T03:32:00;100370;;;10.1;100.0
68320;BME280;55168;51.120;17.024;2023-05-29T03:33:00;100370;;;10.2;100.0
68320;BME280;55168;51.120;17.024;2023-05-29T03:34:00;100370;;;10.1;100.0
68320;BME280;55168;51.120;17.024;2023-05-29T03:35:00;100370;;;10.1;100.0
68320;BME280;55168;51.120;17.024;2023-05-29T03:36:00;100370;;;10.1;100.0
68320;BME280;55168;51.120;17.024;2023-05-29T03:37:00;100370;;;10.1;100.0
68320;BME280;55168;51.120;17.024;2023-05-29T03:38:00;100370;;;10.1;100.0
68320;BME280;55168;51.120;17.024;2023-05-29T03:39:00;100370;;;10.1;100.0
68320;BME280;55168;51.120;17.024;2023-05-29T03:40:00;100380;;;10.1;100.0
68320;BME280;55168;51.120;17.024;2023-05-29T03:41:00;100380;;;10.1;100.0
68320;BME280;55168;51.120;17.024;2023-05-29T03:42:00;100380;;;10.1;100.0
68320;BME280;55168;51.120;17.024;2023-05-29T03:43:00;100380;;;10.1;100.0
68320;BME280;55168;51.120;17.024;2023-05-29T03:44:00;100380;;;10.2;100.0
68320;BME280;55168;51.120;17.024;2023-05-29T03:45:00;100380;;;10.1;100.0
68320;BME280;55168;51.120;17.024;2023-05-29T03:46:00;100380;;;10.2;100.0
68320;BME280;55168;51.120;17.024;2023-05-29T03:47:00;100380;;;10.2;100.0
68320;BME280;55168;51.120;17.024;2023-05-29T03:48:00;100380;;;10.2;100.0
68320;BME280;55168;51.120;17.024;2023-05-29T03:49:00;100380;;;10.2;100.0
68320;BME280;55168;51.120;17.024;2023-05-29T03:50:00;100380;;;10.2;100.0
68320;BME280;55168;51.120;17.024;2023-05-29T03:51:00;100380;;;10.3;100.0
68320;BME280;55168;51.120;17.024;2023-05-29T03:52:00;100380;;;10.3;100.0
68320;BME280;55168;51.120;17.024;2023-05-29T03:53:00;100380;;;10.3;100.0
68320;BME280;55168;51.120;17.024;2023-05-29T03:54:00;100380;;;10.3;100.0
68320;BME280;55168;51.120;17.024;2023-05-29T03:55:01;100380;;;10.4;100.0
68320;BME280;55168;51.120;17.024;2023-05-29T03:56:00;100380;;;10.4;100.0
68320;BME280;55168;51.120;17.024;2023-05-29T03:57:00;100380;;;10.5;100.0
68320;BME280;55168;51.120;17.024;2023-05-29T03:58:00;100380;;;10.5;100.0
68320;BME280;55168;51.120;17.024;2023-05-29T03:59:00;100380;;;10.5;100.0
68320;BME280;55168;51.120;17.024;2023-05-29T04:00:00;100380;;;10.6;100.0
68320;BME280;55168;51.120;17.024;2023-05-29T04:01:00;100380;;;10.6;100.0
68320;BME280;55168;51.120;17.024;2023-05-29T04:02:00;100380;;;10.6;100.0
68320;BME280;55168;51.120;17.024;2023-05-29T04:03:00;100380;;;10.6;100.0
68320;BME280;55168;51.120;17.024;2023-05-29T04:04:00;100380;;;10.7;100.0
68320;BME280;55168;51.120;17.024;2023-05-29T04:05:00;100380;;;10.7;100.0
68320;BME280;55168;51.120;17.024;2023-05-29T04:06:00;100380;;;10.8;100.0
68320;BME280;55168;51.120;17.024;2023-05-29T04:07:00;100380;;;10.8;100.0
68320;BME280;55168;51.120;17.024;2023-05-29T04:08:00;100380;;;10.9;100.0
68320;BME280;55168;51.120;17.024;2023-05-29T04:09:00;100380;;;10.9;100.0
68320;BME280;55168;51.120;17.024;2023-05-29T04:10:00;100370;;;10.8;100.0
68320;BME280;55168;51.120;17.024;2023-05-29T04:11:00;100380;;;10.9;100.0
68320;BME280;55168;51.120;17.024;2023-05-29T04:12:00;100380;;;11.0;100.0
68320;BME280;55168;51.120;17.024;2023-05-29T04:13:00;100380;;;11.0;100.0
68320;BME280;55168;51.120;17.024;2023-05-29T04:14:00;100380;;;11.0;100.0
68320;BME280;55168;51.120;17.024;2023-05-29T04:15:00;100370;;;11.0;100.0
68320;BME280;55168;51.120;17.024;2023-05-29T04:16:00;100380;;;11.0;100.0
68320;BME280;55168;51.120;17.024;2023-05-29T04:17:00;100380;;;11.1;100.0
68320;BME280;55168;51.120;17.024;2023-05-29T04:18:00;100380;;;11.1;100.0
68320;BME280;55168;51.120;17.024;2023-05-29T04:19:00;100380;;;11.1;100.0
68320;BME280;55168;51.120;17.024;2023-05-29T04:20:00;100380;;;11.2;100.0
68320;BME280;55168;51.120;17.024;2023-05-29T04:21:00;100380;;;11.3;100.0
68320;BME280;55168;51.120;17.024;2023-05-29T04:22:00;100380;;;11.3;100.0
68320;BME280;55168;51.120;17.024;2023-05-29T04:23:00;100380;;;11.1;100.0
68320;BME280;55168;51.120;17.024;2023-05-29T04:24:00;100390;;;11.2;100.0
68320;BME280;55168;51.120;17.024;2023-05-29T04:25:00;100390;;;11.2;100.0
68320;BME280;55168;51.120;17.024;2023-05-29T04:26:00;100380;;;11.2;100.0
68320;BME280;55168;51.120;17.024;2023-05-29T04:27:00;100390;;;11.3;100.0
68320;BME280;55168;51.120;17.024;2023-05-29T04:28:00;100390;;;11.1;100.0
68320;BME280;55168;51.120;17.024;2023-05-29T04:29:00;100390;;;11.0;100.0
68320;BME280;55168;51.120;17.024;2023-05-29T04:30:00;100390;;;10.9;100.0
68320;BME280;55168;51.120;17.024;2023-05-29T04:31:00;100390;;;10.9;100.0
68320;BME280;55168;51.120;17.024;2023-05-29T04:32:00;100400;;;10.8;100.0
68320;BME280;55168;51.120;17.024;2023-05-29T04:33:00;100400;;;10.9;100.0
68320;BME280;55168;51.120;17.024;2023-05-29T04:34:00;100400;;;10.8;100.0
68320;BME280;55168;51.120;17.024;2023-05-29T04:35:00;100400;;;11.1;100.0
68320;BME280;55168;51.120;17.024;2023-05-29T04:36:00;100400;;;11.4;100.0
68320;BME280;55168;51.120;17.024;2023-05-29T04:37:01;100400;;;11.5;100.0
68320;BME280;55168;51.120;17.024;2023-05-29T04:38:00;100400;;;11.6;100.0
68320;BME280;55168;51.120;17.024;2023-05-29T04:39:00;100400;;;11.8;100.0
68320;BME280;55168;51.120;17.024;2023-05-29T04:40:00;100400;;;12.1;100.0
68320;BME280;55168;51.120;17.024;2023-05-29T04:41:00;100400;;;12.2;100.0
68320;BME280;55168;51.120;17.024;2023-05-29T04:42:00;100400;;;12.3;100.0
68320;BME280;55168;51.120;17.024;2023-05-29T04:43:00;100400;;;12.4;100.0
68320;BME280;55168;51.120;17.024;2023-05-29T04:44:00;100400;;;12.6;100.0
68320;BME280;55168;51.120;17.024;2023-05-29T04:45:00;100400;;;12.9;100.0
68320;BME280;55168;51.120;17.024;2023-05-29T04:46:00;100400;;;13.1;100.0
68320;BME280;55168;51.120;17.024;2023-05-29T04:47:00;100400;;;13.4;100.0
68320;BME280;55168;51.120;17.024;2023-05-29T04:48:00;100400;;;13.6;100.0
68320;BME280;55168;51.120;17.024;2023-05-29T04:49:00;100400;;;13.8;100.0
68320;BME280;55168;51.120;17.024;2023-05-29T04:50:00;100400;;;13.9;100.0
68320;BME280;55168;51.120;17.024;2023-05-29T04:51:00;100390;;;14.1;100.0
68320;BME280;55168;51.120;17.024;2023-05-29T04:52:00;100390;;;14.2;100.0
68320;BME280;55168;51.120;17.024;2023-05-29T04:53:00;100400;;;14.4;100.0
68320;BME280;55168;51.120;17.024;2023-05-29T04:54:00;100390;;;14.5;100.0
68320;BME280;55168;51.120;17.024;2023-05-29T04:55:00;100390;;;14.6;100.0
68320;BME280;55168;51.120;17.024;2023-05-29T04:56:00;100390;;;14.4;100.0
68320;BME280;55168;51.120;17.024;2023-05-29T04:57:00;100390;;;14.6;100.0
68320;BME280;55168;51.120;17.024;2023-05-29T04:58:00;100390;;;14.8;100.0
68320;BME280;55168;51.120;17.024;2023-05-29T04:59:00;100390;;;15.0;100.0
68320;BME280;55168;51.120;17.024;2023-05-29T05:00:00;100390;;;15.2;100.0
68320;BME280;55168;51.120;17.024;2023-05-29T05:01:00;100390;;;15.3;100.0
68320;BME280;55168;51.120;17.024;2023-05-29T05:02:00;100390;;;15.3;100.0
68320;BME280;55168;51.120;17.024;2023-05-29T05:03:00;100390;;;15.5;100.0
68320;BME280;55168;51.120;17.024;2023-05-29T05:04:00;100400;;;15.5;100.0
68320;BME280;55168;51.120;17.024;2023-05-29T05:05:00;100400;;;15.5;100.0
68320;BME280;55168;51.120;17.024;2023-05-29T05:06:00;100400;;;15.3;100.0
68320;BME280;55168;51.120;17.024;2023-05-29T05:07:00;100400;;;15.3;100.0
68320;BME280;55168;51.120;17.024;2023-05-29T05:08:00;100410;;;15.6;100.0
68320;BME280;55168;51.120;17.024;2023-05-29T05:09:00;100410;;;15.8;100.0
68320;BME280;55168;51.120;17.024;2023-05-29T05:10:00;100400;;;15.9;100.0
68320;BME280;55168;51.120;17.024;2023-05-29T05:11:00;100400;;;16.0;100.0
68320;BME280;55168;51.120;17.024;2023-05-29T05:12:00;100400;;;16.1;100.0
68320;BME280;55168;51.120;17.024;2023-05-29T05:13:00;100410;;;16.1;100.0
68320;BME280;55168;51.120;17.024;2023-05-29T05:14:00;100400;;;16.3;100.0
68320;BME280;55168;51.120;17.024;2023-05-29T05:15:00;100410;;;16.5;100.0
68320;BME280;55168;51.120;17.024;2023-05-29T05:16:00;100410;;;16.5;100.0
68320;BME280;55168;51.120;17.024;2023-05-29T05:17:00;100410;;;16.0;100.0
68320;BME280;55168;51.120;17.024;2023-05-29T05:18:00;100410;;;16.1;100.0
68320;BME280;55168;51.120;17.024;2023-05-29T05:19:00;100400;;;16.3;100.0
68320;BME280;55168;51.120;17.024;2023-05-29T05:20:00;100400;;;16.5;100.0
68320;BME280;55168;51.120;17.024;2023-05-29T05:21:00;100400;;;16.4;100.0
68320;BME280;55168;51.120;17.024;2023-05-29T05:22:00;100400;;;16.9;100.0
68320;BME280;55168;51.120;17.024;2023-05-29T05:23:00;100400;;;17.3;100.0
68320;BME280;55168;51.120;17.024;2023-05-29T05:24:00;100400;;;17.6;100.0
68320;BME280;55168;51.120;17.024;2023-05-29T05:25:00;100400;;;17.8;100.0
68320;BME280;55168;51.120;17.024;2023-05-29T05:26:00;100400;;;18.0;100.0
68320;BME280;55168;51.120;17.024;2023-05-29T05:27:00;100400;;;18.1;100.0
68320;BME280;55168;51.120;17.024;2023-05-29T05:28:01;100400;;;17.6;100.0
68320;BME280;55168;51.120;17.024;2023-05-29T05:29:00;100410;;;17.7;100.0